Time;durP1;ratioP1;P1;durP2;ratioP2;P2;SDS_P1;SDS_P2;PMS_P1;PMS_P2;Temp;Humidity;BMP_temperature;BMP_pressure;BME280_temperature;BME280_humidity;BME280_pressure;Samples;Min_cycle;Max_cycle;Signal;HPM_P1;HPM_P2
2022/05/26 00:00:31;;;;;;;;;;;;;;;22.36;48.65;100545.56;2065143;28;20347;-55
2022/05/26 00:01:31;;;;;;;;;;;;;;;22.38;48.64;100550.91;2065082;28;20263;-57
2022/05/26 00:02:32;;;;;;;;;;;;;;;22.35;48.58;100549.34;2068152;28;19952;-57
2022/05/26 00:03:33;;;;;;;;;;;;;;;22.33;48.43;100554.13;2063008;28;19913;-57
2022/05/26 00:04:33;;;;;;;;;;;;;;;22.31;48.18;100549.81;2067805;28;21032;-57
2022/05/26 00:05:33;;;;;;;;;;;;;;;22.28;47.36;100544.66;2063197;28;19913;-57
2022/05/26 00:06:34;;;;;;;;;;;;;;;22.26;47.66;100548.41;2064547;28;20366;-57
2022/05/26 00:07:34;;;;;;;;;;;;;;;22.23;47.50;100547.88;2067880;28;19921;-57
2022/05/26 00:08:36;;;;;;;;;;;;;;;22.22;47.46;100541.53;2060668;28;19917;-57
2022/05/26 00:09:36;;;;;;;;;;;;;;;22.21;47.53;100545.28;2060095;28;21431;-57
2022/05/26 00:10:37;;;;;;;;;;;;;;;22.20;47.26;100546.31;2065549;28;19913;-57
2022/05/26 00:11:38;;;;;;;;;;;;;;;22.20;47.48;100545.44;2066768;28;19948;-57
2022/05/26 00:12:38;;;;;;;;;;;;;;;22.18;47.49;100548.31;2067375;28;19996;-57
2022/05/26 00:13:40;;;;;;;;;;;;;;;22.17;47.50;100538.38;2061414;28;19917;-57
2022/05/26 00:14:41;;;;;;;;;;;;;;;22.18;47.51;100544.72;2066040;28;19921;-57
2022/05/26 00:15:41;;;;;;;;;;;;;;;22.17;47.71;100552.09;2066092;28;19944;-57
2022/05/26 00:16:42;;;;;;;;;;;;;;;22.16;47.63;100544.84;2066549;28;19917;-57
2022/05/26 00:17:43;;;;;;;;;;;;;;;22.15;47.83;100545.91;2065866;28;19924;-57
2022/05/26 00:18:43;;;;;;;;;;;;;;;22.15;47.65;100543.16;2063220;28;19916;-57
2022/05/26 00:19:43;;;;;;;;;;;;;;;22.14;47.50;100544.16;2065549;28;19920;-57
2022/05/26 00:20:44;;;;;;;;;;;;;;;22.15;47.59;100540.41;2066750;28;19932;-57
2022/05/26 00:21:47;;;;;;;;;;;;;;;22.14;47.63;100549.63;2064304;28;20550;-56
2022/05/26 00:22:47;;;;;;;;;;;;;;;22.14;47.58;100538.66;2066459;28;20014;-57
2022/05/26 00:23:47;;;;;;;;;;;;;;;22.14;47.59;100549.63;2069145;28;20189;-57
2022/05/26 00:24:48;;;;;;;;;;;;;;;22.13;47.69;100542.44;2065382;28;20540;-57
2022/05/26 00:25:48;;;;;;;;;;;;;;;22.13;47.72;100553.41;2063262;28;19926;-57
2022/05/26 00:26:48;;;;;;;;;;;;;;;22.12;47.70;100539.84;2069246;28;19913;-57
2022/05/26 00:27:49;;;;;;;;;;;;;;;22.13;47.95;100553.41;2066064;28;19927;-57
2022/05/26 00:28:49;;;;;;;;;;;;;;;22.13;47.86;100549.81;2066830;28;19909;-57
2022/05/26 00:29:50;;;;;;;;;;;;;;;22.12;47.88;100550.81;2068187;28;20137;-58
2022/05/26 00:30:50;;;;;;;;;;;;;;;22.11;47.83;100549.97;2068467;28;19983;-57
2022/05/26 00:31:50;;;;;;;;;;;;;;;22.10;47.77;100553.75;2065411;28;19987;-57
2022/05/26 00:32:51;;;;;;;;;;;;;;;22.10;47.86;100553.75;2065571;28;19956;-57
2022/05/26 00:33:51;;;;;;;;;;;;;;;22.09;47.92;100552.00;2065399;28;19905;-57
2022/05/26 00:34:51;;;;;;;;;;;;;;;22.11;47.72;100554.59;2070239;28;20326;-56
2022/05/26 00:35:52;;;;;;;;;;;;;;;22.10;47.90;100553.75;2065637;28;20240;-57
2022/05/26 00:36:52;;;;;;;;;;;;;;;22.09;48.00;100552.00;2065861;28;19953;-57
2022/05/26 00:37:53;;;;;;;;;;;;;;;22.09;47.63;100552.00;2068645;28;19917;-57
2022/05/26 00:38:53;;;;;;;;;;;;;;;22.08;47.55;100554.94;2066615;28;20797;-57
2022/05/26 00:39:53;;;;;;;;;;;;;;;22.09;47.64;100562.13;2068421;28;20319;-56
2022/05/26 00:41:00;;;;;;;;;;;;;;;22.08;47.89;100547.53;2066902;28;19925;-56
2022/05/26 00:42:03;;;;;;;;;;;;;;;22.08;47.73;100550.28;2065212;28;19921;-57
2022/05/26 00:43:04;;;;;;;;;;;;;;;22.07;47.66;100554.03;2067797;28;20220;-56
2022/05/26 00:44:05;;;;;;;;;;;;;;;22.07;47.74;100554.03;2066393;28;20385;-57
2022/05/26 00:45:06;;;;;;;;;;;;;;;22.07;47.85;100555.94;2065916;28;20512;-57
2022/05/26 00:46:15;;;;;;;;;;;;;;;22.07;47.66;100558.69;2069697;28;20269;-57
2022/05/26 00:47:20;;;;;;;;;;;;;;;22.06;47.66;100552.31;2065138;28;20278;-57
2022/05/26 00:48:23;;;;;;;;;;;;;;;22.07;47.69;100554.03;2066321;28;19917;-57
2022/05/26 00:49:46;;;;;;;;;;;;;;;22.06;47.79;100552.31;2060639;28;19929;-57
2022/05/26 00:50:49;;;;;;;;;;;;;;;22.06;47.92;100546.84;2060496;28;20240;-56
2022/05/26 00:51:49;;;;;;;;;;;;;;;22.06;47.93;100544.09;2074606;28;19913;-57
2022/05/26 00:52:52;;;;;;;;;;;;;;;22.07;47.79;100553.19;2065688;28;19924;-57
2022/05/26 00:53:54;;;;;;;;;;;;;;;22.06;48.02;100549.59;2067533;28;19917;-57
2022/05/26 00:54:57;;;;;;;;;;;;;;;22.06;47.95;100552.31;2066515;28;19928;-57
2022/05/26 00:56:00;;;;;;;;;;;;;;;22.06;47.63;100555.06;2069259;28;20358;-57
2022/05/26 00:57:03;;;;;;;;;;;;;;;22.06;47.94;100557.81;2067932;28;19960;-57
2022/05/26 00:58:14;;;;;;;;;;;;;;;22.05;47.80;100551.47;2063039;28;20241;-57
2022/05/26 00:59:21;;;;;;;;;;;;;;;22.06;47.65;100555.06;2068594;28;20467;-57
2022/05/26 01:00:23;;;;;;;;;;;;;;;22.05;47.97;100556.09;2067759;28;19916;-57
2022/05/26 01:01:24;;;;;;;;;;;;;;;22.04;47.86;100557.09;2069797;28;19948;-57
2022/05/26 01:02:26;;;;;;;;;;;;;;;22.04;48.15;100552.47;2076351;28;19925;-57
2022/05/26 01:03:30;;;;;;;;;;;;;;;22.04;48.00;100554.38;2062260;28;20448;-57
2022/05/26 01:04:35;;;;;;;;;;;;;;;22.04;47.88;100554.38;2066947;28;19917;-57
2022/05/26 01:05:43;;;;;;;;;;;;;;;22.04;48.11;100554.38;2067667;28;19974;-57
2022/05/26 01:06:49;;;;;;;;;;;;;;;22.04;48.12;100554.38;2068300;28;20041;-57
2022/05/26 01:07:50;;;;;;;;;;;;;;;22.03;47.80;100558.16;2061886;28;20004;-57
2022/05/26 01:08:55;;;;;;;;;;;;;;;22.03;47.82;100559.00;2070249;28;20038;-57
2022/05/26 01:09:56;;;;;;;;;;;;;;;22.02;47.85;100556.41;2071166;28;19959;-57
2022/05/26 01:10:56;;;;;;;;;;;;;;;22.02;48.07;100561.88;2065275;28;20050;-57
2022/05/26 01:11:56;;;;;;;;;;;;;;;22.02;47.99;100556.41;2072329;28;19939;-57
2022/05/26 01:12:57;;;;;;;;;;;;;;;22.02;47.82;100565.53;2066075;28;19998;-57
2022/05/26 01:14:02;;;;;;;;;;;;;;;22.01;48.05;100558.28;2070140;28;19913;-56
2022/05/26 01:15:04;;;;;;;;;;;;;;;22.02;48.05;100556.41;2061794;28;19975;-57
2022/05/26 01:16:09;;;;;;;;;;;;;;;22.00;48.00;100561.22;2067420;28;19970;-57
2022/05/26 01:17:18;;;;;;;;;;;;;;;22.00;47.97;100559.31;2066769;28;19921;-57
2022/05/26 01:18:25;;;;;;;;;;;;;;;22.01;48.07;100565.66;2067961;28;19994;-57
2022/05/26 01:19:39;;;;;;;;;;;;;;;22.00;47.86;100559.31;2064600;28;19922;-57
2022/05/26 01:20:43;;;;;;;;;;;;;;;22.01;48.00;100562.94;2064610;28;19921;-57
2022/05/26 01:21:49;;;;;;;;;;;;;;;22.00;47.93;100558.47;2064650;28;19910;-57
2022/05/26 01:22:52;;;;;;;;;;;;;;;22.00;48.18;100564.81;2064966;28;19993;-57
2022/05/26 01:23:55;;;;;;;;;;;;;;;22.00;48.00;100559.31;2065615;28;19924;-58
2022/05/26 01:25:22;;;;;;;;;;;;;;;22.00;48.10;100558.47;2068771;28;19978;-57
2022/05/26 01:26:57;;;;;;;;;;;;;;;22.00;48.24;100558.47;2064310;28;20058;-57
2022/05/26 01:28:06;;;;;;;;;;;;;;;22.00;48.15;100558.47;2056742;28;19917;-57
2022/05/26 01:29:38;;;;;;;;;;;;;;;22.00;48.18;100558.47;2059170;28;20364;-57
2022/05/26 01:30:41;;;;;;;;;;;;;;;22.00;48.17;100558.47;2064171;28;20245;-57
2022/05/26 01:31:43;;;;;;;;;;;;;;;21.99;47.88;100556.72;2065313;28;19913;-57
2022/05/26 01:33:01;;;;;;;;;;;;;;;22.00;48.30;100552.97;2068143;28;19971;-57
2022/05/26 01:34:02;;;;;;;;;;;;;;;22.00;48.05;100552.97;2068505;28;20287;-57
2022/05/26 01:35:03;;;;;;;;;;;;;;;21.99;48.33;100559.47;2066280;28;19968;-57
2022/05/26 01:36:06;;;;;;;;;;;;;;;21.99;48.26;100553.97;2067481;28;20204;-57
2022/05/26 01:37:15;;;;;;;;;;;;;;;21.99;48.29;100553.97;2063605;28;19924;-56
2022/05/26 01:38:25;;;;;;;;;;;;;;;21.99;48.02;100551.25;2065044;28;19917;-57
2022/05/26 01:39:31;;;;;;;;;;;;;;;21.98;48.22;100555.00;2067785;28;19994;-57
2022/05/26 01:40:39;;;;;;;;;;;;;;;21.99;48.22;100556.72;2067411;28;20710;-57
2022/05/26 01:41:39;;;;;;;;;;;;;;;21.98;48.04;100549.53;2063171;28;19928;-57
2022/05/26 01:42:52;;;;;;;;;;;;;;;21.98;48.21;100555.88;2069955;28;19921;-57
2022/05/26 01:44:00;;;;;;;;;;;;;;;21.98;48.28;100552.28;2068304;28;20550;-57
2022/05/26 01:45:20;;;;;;;;;;;;;;;21.97;48.26;100547.78;2068057;28;19925;-57
2022/05/26 01:46:38;;;;;;;;;;;;;;;21.97;48.12;100553.28;2067301;28;19921;-57
2022/05/26 01:47:38;;;;;;;;;;;;;;;21.97;48.12;100548.63;2067577;28;19924;-57
2022/05/26 01:48:49;;;;;;;;;;;;;;;21.97;48.16;100547.78;2063208;28;19917;-57
2022/05/26 01:49:53;;;;;;;;;;;;;;;21.96;48.03;100546.06;2065877;28;19924;-57
2022/05/26 01:51:00;;;;;;;;;;;;;;;21.96;48.32;100543.31;2064641;28;19983;-57
2022/05/26 01:52:00;;;;;;;;;;;;;;;21.96;48.21;100557.06;2067373;28;19921;-57
2022/05/26 01:53:04;;;;;;;;;;;;;;;21.96;48.18;100546.06;2071398;28;19921;-57
2022/05/26 01:54:19;;;;;;;;;;;;;;;21.94;48.30;100548.97;2066557;28;19941;-57
2022/05/26 01:55:25;;;;;;;;;;;;;;;21.94;48.30;100548.97;2063456;28;20020;-57
2022/05/26 01:56:33;;;;;;;;;;;;;;;21.95;48.29;100555.31;2070353;28;19917;-57
2022/05/26 01:57:33;;;;;;;;;;;;;;;21.94;48.38;100548.97;2068904;28;19975;-57
2022/05/26 01:58:35;;;;;;;;;;;;;;;21.94;48.21;100548.09;2065670;28;19991;-57
2022/05/26 01:59:49;;;;;;;;;;;;;;;21.95;48.42;100549.81;2068872;28;20647;-57
2022/05/26 02:00:51;;;;;;;;;;;;;;;21.95;48.16;100549.81;2065579;28;19924;-57
2022/05/26 02:01:57;;;;;;;;;;;;;;;21.94;48.12;100542.63;2069707;28;20329;-56
2022/05/26 02:03:12;;;;;;;;;;;;;;;21.95;48.30;100549.81;2066681;28;19921;-57
2022/05/26 02:04:15;;;;;;;;;;;;;;;21.94;48.33;100542.63;2063994;28;19917;-57
2022/05/26 02:05:18;;;;;;;;;;;;;;;21.94;48.26;100556.34;2064619;28;20012;-57
2022/05/26 02:06:36;;;;;;;;;;;;;;;21.94;48.43;100546.22;2070603;28;19921;-57
2022/05/26 02:07:47;;;;;;;;;;;;;;;21.95;48.08;100549.81;2064742;28;19924;-57
2022/05/26 02:08:55;;;;;;;;;;;;;;;21.94;48.48;100548.09;2063573;28;20036;-57
2022/05/26 02:09:57;;;;;;;;;;;;;;;21.93;48.11;100541.75;2066329;28;20334;-58
2022/05/26 02:10:57;;;;;;;;;;;;;;;21.94;48.35;100542.63;2069108;28;20231;-57
2022/05/26 02:11:57;;;;;;;;;;;;;;;21.94;48.38;100542.63;2063047;28;19917;-57
2022/05/26 02:13:03;;;;;;;;;;;;;;;21.94;48.53;100553.59;2068846;28;19967;-57
2022/05/26 02:14:10;;;;;;;;;;;;;;;21.93;48.43;100546.41;2064510;28;20276;-57
2022/05/26 02:15:10;;;;;;;;;;;;;;;21.94;48.50;100556.34;2066813;28;19924;-57
2022/05/26 02:16:30;;;;;;;;;;;;;;;21.93;48.38;100546.41;2063972;28;20016;-57
2022/05/26 02:17:32;;;;;;;;;;;;;;;21.92;48.54;100545.50;2064614;28;19909;-57
2022/05/26 02:18:36;;;;;;;;;;;;;;;21.93;48.41;100546.41;2068584;28;19925;-57
2022/05/26 02:19:52;;;;;;;;;;;;;;;21.93;48.50;100552.75;2068575;28;19935;-57
2022/05/26 02:20:54;;;;;;;;;;;;;;;21.90;48.21;100547.56;2066297;28;19960;-57
2022/05/26 02:21:54;;;;;;;;;;;;;;;21.92;48.46;100550.13;2066695;28;19921;-57
2022/05/26 02:22:58;;;;;;;;;;;;;;;21.92;48.62;100544.66;2069079;28;19953;-57
2022/05/26 02:24:01;;;;;;;;;;;;;;;21.90;48.51;100542.09;2067992;28;19917;-57
2022/05/26 02:25:18;;;;;;;;;;;;;;;21.90;48.49;100543.94;2068919;28;19928;-57
2022/05/26 02:26:18;;;;;;;;;;;;;;;21.91;48.58;100543.78;2068579;28;19971;-57
2022/05/26 02:27:19;;;;;;;;;;;;;;;21.90;48.48;100541.19;2068214;28;20445;-57
2022/05/26 02:28:19;;;;;;;;;;;;;;;21.89;48.49;100542.22;2067823;28;19917;-57
2022/05/26 02:30:40;;;;;;;;;;;;;;;21.89;48.41;100544.97;2067605;28;19921;-57
2022/05/26 02:31:42;;;;;;;;;;;;;;;21.89;48.42;100539.47;2063139;28;19920;-57
2022/05/26 02:32:47;;;;;;;;;;;;;;;21.90;48.55;100541.19;2068427;28;19909;-57
2022/05/26 02:33:47;;;;;;;;;;;;;;;21.88;48.48;100543.22;2067105;28;19917;-57
2022/05/26 02:34:50;;;;;;;;;;;;;;;21.89;48.42;100540.34;2068608;28;19913;-57
2022/05/26 02:35:52;;;;;;;;;;;;;;;21.89;48.41;100542.22;2068709;28;19987;-57
2022/05/26 02:36:55;;;;;;;;;;;;;;;21.88;48.50;100544.13;2066661;28;19905;-56
2022/05/26 02:37:59;;;;;;;;;;;;;;;21.88;48.56;100544.13;2067826;28;20354;-57
2022/05/26 02:39:00;;;;;;;;;;;;;;;21.89;48.38;100539.47;2067815;28;19936;-57
2022/05/26 02:40:00;;;;;;;;;;;;;;;21.89;48.46;100542.22;2070075;28;19948;-57
2022/05/26 02:41:01;;;;;;;;;;;;;;;21.88;48.62;100543.22;2070232;28;19921;-57
2022/05/26 02:42:01;;;;;;;;;;;;;;;21.89;48.25;100545.81;2072217;28;19960;-57
2022/05/26 02:43:28;;;;;;;;;;;;;;;21.89;48.50;100539.47;2068595;28;19909;-57
2022/05/26 02:44:30;;;;;;;;;;;;;;;21.89;48.41;100544.97;2061748;28;19921;-57
2022/05/26 02:45:36;;;;;;;;;;;;;;;21.89;48.31;100544.97;2069142;28;19943;-57
2022/05/26 02:46:56;;;;;;;;;;;;;;;21.89;48.41;100539.47;2065687;28;20236;-57
2022/05/26 02:47:56;;;;;;;;;;;;;;;21.88;48.51;100540.47;2064600;28;19921;-57
2022/05/26 02:49:15;;;;;;;;;;;;;;;21.88;48.53;100537.75;2065312;28;19924;-57
2022/05/26 02:50:30;;;;;;;;;;;;;;;21.88;48.45;100535.88;2065017;28;20740;-57
2022/05/26 02:51:30;;;;;;;;;;;;;;;21.88;48.75;100548.72;2065067;28;19920;-57
2022/05/26 02:52:34;;;;;;;;;;;;;;;21.87;48.67;100545.13;2063273;28;19917;-57
2022/05/26 02:53:41;;;;;;;;;;;;;;;21.87;48.59;100539.63;2067576;28;20022;-57
2022/05/26 02:54:41;;;;;;;;;;;;;;;21.86;48.42;100535.19;2062279;28;19913;-57
2022/05/26 02:56:00;;;;;;;;;;;;;;;21.87;48.63;100547.00;2066099;28;19913;-57
2022/05/26 02:57:07;;;;;;;;;;;;;;;21.86;48.44;100535.19;2065540;28;19932;-57
2022/05/26 02:58:07;;;;;;;;;;;;;;;21.85;48.89;100544.41;2067751;28;20324;-57
2022/05/26 02:59:46;;;;;;;;;;;;;;;21.86;48.77;100546.16;2062002;28;19921;-57
2022/05/26 03:00:52;;;;;;;;;;;;;;;21.84;48.63;100543.56;2062853;28;19924;-57
2022/05/26 03:01:58;;;;;;;;;;;;;;;21.84;48.59;100549.03;2067524;28;19924;-57
2022/05/26 03:03:05;;;;;;;;;;;;;;;21.86;48.55;100545.28;2067539;28;20181;-57
2022/05/26 03:04:05;;;;;;;;;;;;;;;21.85;48.64;100549.91;2067714;28;19917;-56
2022/05/26 03:05:06;;;;;;;;;;;;;;;21.84;48.51;100548.19;2066044;28;20508;-57
2022/05/26 03:06:12;;;;;;;;;;;;;;;21.84;48.65;100554.53;2059475;28;19913;-57
2022/05/26 03:07:18;;;;;;;;;;;;;;;21.83;48.80;100541.84;2069080;28;19920;-58
2022/05/26 03:08:21;;;;;;;;;;;;;;;21.83;48.46;100546.47;2069319;28;19996;-57
2022/05/26 03:09:22;;;;;;;;;;;;;;;21.83;48.58;100541.84;2068569;28;20000;-57
2022/05/26 03:10:26;;;;;;;;;;;;;;;21.84;48.58;100545.44;2066219;28;19921;-57
2022/05/26 03:11:27;;;;;;;;;;;;;;;21.84;48.57;100548.19;2066874;28;19928;-57
2022/05/26 03:12:29;;;;;;;;;;;;;;;21.83;48.66;100541.84;2066628;28;19917;-57
2022/05/26 03:13:29;;;;;;;;;;;;;;;21.83;48.67;100547.31;2066011;28;19936;-57
2022/05/26 03:14:30;;;;;;;;;;;;;;;21.84;48.59;100549.03;2066526;28;19956;-57
2022/05/26 03:15:31;;;;;;;;;;;;;;;21.83;48.58;100541.84;2064806;28;19922;-57
2022/05/26 03:16:32;;;;;;;;;;;;;;;21.83;48.47;100546.47;2064952;28;19997;-57
2022/05/26 03:17:32;;;;;;;;;;;;;;;21.83;48.69;100547.31;2067020;28;19995;-57
2022/05/26 03:18:33;;;;;;;;;;;;;;;21.83;48.46;100547.31;2067610;28;19959;-57
2022/05/26 03:19:33;;;;;;;;;;;;;;;21.84;48.60;100551.78;2072396;28;19915;-57
2022/05/26 03:20:34;;;;;;;;;;;;;;;21.83;48.42;100541.84;2067606;28;19909;-57
2022/05/26 03:21:34;;;;;;;;;;;;;;;21.84;48.48;100551.78;2066276;28;19925;-57
2022/05/26 03:22:35;;;;;;;;;;;;;;;21.83;48.68;100551.97;2068795;28;19921;-57
2022/05/26 03:23:36;;;;;;;;;;;;;;;21.84;48.72;100548.19;2067371;28;19952;-57
2022/05/26 03:24:36;;;;;;;;;;;;;;;21.84;48.45;100548.19;2066859;28;19923;-57
2022/05/26 03:25:37;;;;;;;;;;;;;;;21.83;48.57;100552.81;2069413;28;19924;-57
2022/05/26 03:26:37;;;;;;;;;;;;;;;21.83;48.67;100546.47;2063189;28;19922;-57
2022/05/26 03:27:38;;;;;;;;;;;;;;;21.83;48.68;100547.31;2070688;28;20058;-57
2022/05/26 03:28:38;;;;;;;;;;;;;;;21.82;48.74;100548.31;2066710;28;19921;-57
2022/05/26 03:29:39;;;;;;;;;;;;;;;21.83;48.82;100551.97;2069904;28;20274;-57
2022/05/26 03:30:39;;;;;;;;;;;;;;;21.82;48.62;100545.59;2069134;28;19917;-57
2022/05/26 03:31:39;;;;;;;;;;;;;;;21.82;48.65;100550.22;2070297;28;20473;-57
2022/05/26 03:32:41;;;;;;;;;;;;;;;21.82;48.62;100556.56;2070301;28;19943;-57
2022/05/26 03:41:35;;;;;;;;;;;;;;;21.79;48.71;100548.66;2067222;28;20012;-57
2022/05/26 03:42:35;;;;;;;;;;;;;;;21.79;48.65;100551.41;2069411;28;20296;-57
2022/05/26 03:43:38;;;;;;;;;;;;;;;21.80;48.86;100549.50;2065159;28;19956;-57
2022/05/26 03:44:38;;;;;;;;;;;;;;;21.79;48.65;100548.66;2066663;28;19917;-57
2022/05/26 03:45:39;;;;;;;;;;;;;;;21.80;48.75;100546.75;2069260;28;19917;-57
2022/05/26 03:46:39;;;;;;;;;;;;;;;21.79;48.80;100551.41;2066016;28;19939;-57
2022/05/26 03:47:40;;;;;;;;;;;;;;;21.80;48.64;100549.50;2063189;28;19931;-57
2022/05/26 03:48:40;;;;;;;;;;;;;;;21.79;48.80;100551.41;2068942;28;19917;-57
2022/05/26 03:49:40;;;;;;;;;;;;;;;21.79;48.62;100548.66;2065436;28;19909;-57
2022/05/26 03:50:41;;;;;;;;;;;;;;;21.80;48.87;100547.66;2067746;28;19913;-57
2022/05/26 03:51:41;;;;;;;;;;;;;;;21.80;48.77;100552.25;2070711;28;19921;-57
2022/05/26 03:52:41;;;;;;;;;;;;;;;21.80;48.96;100552.25;2073260;28;21014;-57
2022/05/26 03:53:42;;;;;;;;;;;;;;;21.80;48.67;100553.13;2075298;28;19940;-57
2022/05/26 03:54:43;;;;;;;;;;;;;;;21.80;48.77;100550.41;2065144;28;19917;-57
2022/05/26 03:55:44;;;;;;;;;;;;;;;21.80;48.83;100541.28;2066505;28;20006;-57
2022/05/26 03:56:44;;;;;;;;;;;;;;;21.80;48.59;100549.50;2066369;28;19913;-57
2022/05/26 03:57:44;;;;;;;;;;;;;;;21.79;48.71;100551.41;2065781;28;19917;-57
2022/05/26 03:58:44;;;;;;;;;;;;;;;21.79;48.75;100556.88;2061531;28;19927;-57
2022/05/26 03:59:45;;;;;;;;;;;;;;;21.79;48.84;100556.88;2063097;28;19924;-61
2022/05/26 04:00:45;;;;;;;;;;;;;;;21.79;48.73;100553.28;2061304;28;19917;-57
2022/05/26 04:01:46;;;;;;;;;;;;;;;21.79;48.75;100561.50;2065758;28;19920;-58
2022/05/26 04:02:46;;;;;;;;;;;;;;;21.78;48.92;100557.91;2062093;28;19936;-57
2022/05/26 04:03:47;;;;;;;;;;;;;;;21.78;48.77;100560.66;2070084;28;19940;-57
2022/05/26 04:04:47;;;;;;;;;;;;;;;21.79;48.65;100567.00;2065111;28;19984;-57
2022/05/26 04:05:47;;;;;;;;;;;;;;;21.77;48.90;100564.41;2068830;28;19964;-57
2022/05/26 04:06:48;;;;;;;;;;;;;;;21.78;48.80;100568.91;2066892;28;20017;-57
2022/05/26 04:07:49;;;;;;;;;;;;;;;21.77;48.96;100575.38;2067987;28;20035;-57
2022/05/26 04:08:49;;;;;;;;;;;;;;;21.76;49.02;100573.66;2067732;28;19971;-57
2022/05/26 04:09:49;;;;;;;;;;;;;;;21.76;49.19;100576.41;2066089;28;20629;-57
2022/05/26 04:10:50;;;;;;;;;;;;;;;21.76;49.02;100568.19;2067456;28;19952;-57
2022/05/26 04:11:50;;;;;;;;;;;;;;;21.76;48.75;100573.66;2064158;28;20243;-57
2022/05/26 04:12:51;;;;;;;;;;;;;;;21.76;48.95;100578.31;2068230;28;19909;-57
2022/05/26 04:13:52;;;;;;;;;;;;;;;21.75;48.99;100574.66;2067602;28;19909;-57
2022/05/26 04:14:53;;;;;;;;;;;;;;;21.75;49.06;100573.81;2063763;28;19909;-57
2022/05/26 04:15:53;;;;;;;;;;;;;;;21.75;48.62;100566.44;2067678;28;20019;-57
2022/05/26 04:16:53;;;;;;;;;;;;;;;21.75;48.83;100571.94;2066993;28;19909;-57
2022/05/26 04:17:54;;;;;;;;;;;;;;;21.75;48.87;100577.41;2066433;28;20398;-57
2022/05/26 04:18:54;;;;;;;;;;;;;;;21.74;48.83;100575.69;2066247;28;19948;-59
2022/05/26 04:19:55;;;;;;;;;;;;;;;21.74;48.87;100567.47;2065991;28;19951;-57
2022/05/26 04:21:08;;;;;;;;;;;;;;;21.75;48.81;100576.56;2067204;28;20680;-57
2022/05/26 04:22:16;;;;;;;;;;;;;;;21.75;48.90;100571.06;2064753;28;19917;-56
2022/05/26 04:23:16;;;;;;;;;;;;;;;21.76;48.86;100579.16;2064411;28;19917;-57
2022/05/26 04:24:16;;;;;;;;;;;;;;;21.75;48.79;100576.56;2067769;28;20110;-57
2022/05/26 04:25:18;;;;;;;;;;;;;;;21.75;48.89;100574.66;2065149;28;19944;-57
2022/05/26 04:26:20;;;;;;;;;;;;;;;21.75;48.71;100577.41;2066595;28;19924;-57
2022/05/26 04:27:22;;;;;;;;;;;;;;;21.75;48.75;100571.94;2068318;28;19917;-59
2022/05/26 04:28:22;;;;;;;;;;;;;;;21.74;48.98;100575.69;2064500;28;19921;-57
2022/05/26 04:29:23;;;;;;;;;;;;;;;21.75;48.71;100577.41;2075953;28;19938;-57
2022/05/26 04:30:24;;;;;;;;;;;;;;;21.75;48.90;100576.56;2073450;28;20318;-57
2022/05/26 04:31:25;;;;;;;;;;;;;;;21.74;48.77;100575.69;2061103;28;20047;-57
2022/05/26 04:32:26;;;;;;;;;;;;;;;21.75;48.86;100571.94;2060190;28;19952;-57
2022/05/26 04:33:26;;;;;;;;;;;;;;;21.74;49.07;100572.97;2065296;28;19924;-57
2022/05/26 04:34:27;;;;;;;;;;;;;;;21.75;49.08;100579.31;2069226;28;20378;-58
2022/05/26 04:35:27;;;;;;;;;;;;;;;21.74;48.93;100578.44;2066868;28;19957;-57
2022/05/26 04:36:28;;;;;;;;;;;;;;;21.75;48.76;100576.56;2071789;28;19924;-57
2022/05/26 04:37:28;;;;;;;;;;;;;;;21.74;48.98;100586.69;2069301;28;19989;-57
2022/05/26 04:38:29;;;;;;;;;;;;;;;21.73;49.01;100579.47;2060088;28;19921;-57
2022/05/26 04:39:29;;;;;;;;;;;;;;;21.74;48.92;100597.66;2067009;28;20998;-57
2022/05/26 04:40:30;;;;;;;;;;;;;;;21.73;49.15;100576.72;2066566;28;19932;-57
2022/05/26 04:41:30;;;;;;;;;;;;;;;21.75;49.21;100587.53;2066463;28;19921;-57
2022/05/26 04:42:30;;;;;;;;;;;;;;;21.73;49.07;100590.44;2068752;28;20112;-57
2022/05/26 04:43:31;;;;;;;;;;;;;;;21.73;49.00;100584.97;2065598;28;19944;-57
2022/05/26 04:44:33;;;;;;;;;;;;;;;21.73;48.97;100584.97;2068981;28;20139;-57
2022/05/26 04:45:33;;;;;;;;;;;;;;;21.71;49.22;100592.47;2068221;28;20104;-57
2022/05/26 04:46:34;;;;;;;;;;;;;;;21.73;48.90;100600.53;2066720;28;19921;-57
2022/05/26 04:47:35;;;;;;;;;;;;;;;21.72;48.91;100596.94;2070049;28;19924;-57
2022/05/26 04:48:35;;;;;;;;;;;;;;;21.72;48.92;100594.19;2067603;28;20018;-57
2022/05/26 04:49:37;;;;;;;;;;;;;;;21.71;49.29;100595.22;2067860;28;19909;-57
2022/05/26 04:50:38;;;;;;;;;;;;;;;21.71;49.04;100594.38;2064606;28;20227;-57
2022/05/26 04:51:38;;;;;;;;;;;;;;;21.71;49.04;100589.75;2064158;28;19928;-57
2022/05/26 04:52:39;;;;;;;;;;;;;;;21.71;49.04;100592.47;2070813;28;19923;-57
2022/05/26 04:53:39;;;;;;;;;;;;;;;21.71;49.20;100597.13;2066372;28;20381;-57
2022/05/26 04:54:39;;;;;;;;;;;;;;;21.71;49.09;100591.63;2061299;28;19917;-57
2022/05/26 04:55:40;;;;;;;;;;;;;;;21.71;48.99;100591.63;2066412;28;19956;-57
2022/05/26 04:56:40;;;;;;;;;;;;;;;21.71;49.09;100597.97;2065253;28;19917;-57
2022/05/26 04:57:40;;;;;;;;;;;;;;;21.72;49.20;100598.81;2063749;28;20286;-57
2022/05/26 04:58:40;;;;;;;;;;;;;;;21.72;48.96;100593.34;2064395;28;19909;-57
2022/05/26 04:59:41;;;;;;;;;;;;;;;21.72;49.25;100601.56;2060267;28;20650;-57
2022/05/26 05:00:41;;;;;;;;;;;;;;;21.71;48.84;100597.97;2064365;28;19948;-57
2022/05/26 05:01:42;;;;;;;;;;;;;;;21.71;48.91;100597.97;2067134;28;19917;-57
2022/05/26 05:02:42;;;;;;;;;;;;;;;21.71;48.99;100605.34;2063609;28;19991;-57
2022/05/26 05:03:43;;;;;;;;;;;;;;;21.72;49.22;100607.06;2076958;28;19932;-57
2022/05/26 05:04:44;;;;;;;;;;;;;;;21.72;49.18;100604.31;2075496;28;19909;-57
2022/05/26 05:05:45;;;;;;;;;;;;;;;21.72;49.09;100607.06;2071565;28;19913;-57
2022/05/26 05:06:45;;;;;;;;;;;;;;;21.71;49.16;100614.44;2072750;28;20544;-57
2022/05/26 05:07:45;;;;;;;;;;;;;;;21.71;49.33;100608.09;2060886;28;20152;-57
2022/05/26 05:08:46;;;;;;;;;;;;;;;21.72;49.30;100610.66;2067943;28;19988;-57
2022/05/26 05:09:47;;;;;;;;;;;;;;;21.70;49.26;100609.94;2067591;28;20344;-57
2022/05/26 05:10:47;;;;;;;;;;;;;;;21.71;49.05;100614.44;2063204;28;19918;-57
2022/05/26 05:11:48;;;;;;;;;;;;;;;21.70;49.24;100612.69;2069107;28;19921;-57
2022/05/26 05:12:49;;;;;;;;;;;;;;;21.71;49.21;100611.69;2061332;28;20376;-57
2022/05/26 05:13:50;;;;;;;;;;;;;;;21.70;49.22;100612.69;2064757;28;20279;-57
2022/05/26 05:14:52;;;;;;;;;;;;;;;21.70;49.15;100609.94;2065252;28;19921;-57
2022/05/26 05:16:16;;;;;;;;;;;;;;;21.69;49.23;100610.97;2066533;28;20352;-57
2022/05/26 05:17:17;;;;;;;;;;;;;;;21.70;49.27;100618.19;2064051;28;19920;-57
2022/05/26 05:18:17;;;;;;;;;;;;;;;21.69;49.26;100616.47;2070975;28;19917;-57
2022/05/26 05:19:18;;;;;;;;;;;;;;;21.69;49.03;100615.59;2063017;28;20342;-57
2022/05/26 05:20:18;;;;;;;;;;;;;;;21.69;49.21;100621.94;2068072;28;19987;-57
2022/05/26 05:21:23;;;;;;;;;;;;;;;21.68;49.21;100620.22;2070192;28;19964;-57
2022/05/26 05:22:43;;;;;;;;;;;;;;;21.69;49.24;100630.19;2068302;28;19948;-57
2022/05/26 05:23:47;;;;;;;;;;;;;;;21.68;49.46;100625.72;2065295;28;19922;-57
2022/05/26 05:24:51;;;;;;;;;;;;;;;21.67;49.21;100618.50;2067696;28;19921;-57
2022/05/26 05:25:52;;;;;;;;;;;;;;;21.69;49.07;100621.09;2067113;28;19921;-57
2022/05/26 05:26:55;;;;;;;;;;;;;;;21.68;49.18;100628.47;2063309;28;19909;-57
2022/05/26 05:28:00;;;;;;;;;;;;;;;21.68;49.27;100624.84;2069280;28;19913;-57
2022/05/26 05:29:02;;;;;;;;;;;;;;;21.68;49.04;100620.22;2065907;28;19933;-57
2022/05/26 05:30:05;;;;;;;;;;;;;;;21.68;49.00;100625.72;2067000;28;19913;-57
2022/05/26 05:31:08;;;;;;;;;;;;;;;21.68;49.28;100619.34;2070436;28;19917;-57
2022/05/26 05:32:19;;;;;;;;;;;;;;;21.67;49.36;100623.97;2066779;28;19917;-57
2022/05/26 05:33:23;;;;;;;;;;;;;;;21.67;49.06;100629.47;2068035;28;20689;-57
2022/05/26 05:34:27;;;;;;;;;;;;;;;21.67;49.16;100634.97;2061806;28;19917;-57